Wetterdaten: aktuell Donnerstag, 22.02.2018 07:40
Datum Zeit Temp. A. Feuchte A. Luftdruck Regen Wind Taupunkt Windchill Windben
22.02.2018 07:40 -3,8 C 77 % 1020,2 hPa 0,0 l/m 5,0 km/h (1 Bft) -7,2 C -3,8 C 12,9 km/h (3 Bft)
22.02.2018 07:35 -3,8 C 77 % 1020,1 hPa 0,0 l/m 5,3 km/h (1 Bft) -7,2 C -3,8 C 14,5 km/h (3 Bft)
22.02.2018 07:30 -3,8 C 77 % 1020,0 hPa 0,0 l/m 5,6 km/h (1 Bft) -7,2 C -3,8 C 12,9 km/h (3 Bft)
22.02.2018 07:25 -3,8 C 77 % 1020,1 hPa 0,0 l/m 5,9 km/h (2 Bft) -7,2 C -3,8 C 14,5 km/h (3 Bft)
22.02.2018 07:20 -3,8 C 76 % 1020,0 hPa 0,0 l/m 6,9 km/h (2 Bft) -7,4 C -4,4 C 12,9 km/h (3 Bft)
22.02.2018 07:15 -3,8 C 76 % 1020,0 hPa 0,0 l/m 7,1 km/h (2 Bft) -7,4 C -4,6 C 12,9 km/h (3 Bft)
22.02.2018 07:10 -3,8 C 76 % 1020,0 hPa 0,0 l/m 4,3 km/h (1 Bft) -7,4 C -3,8 C 11,3 km/h (2 Bft)
22.02.2018 07:05 -3,7 C 76 % 1020,0 hPa 0,0 l/m 5,2 km/h (1 Bft) -7,3 C -3,7 C 12,9 km/h (3 Bft)
22.02.2018 07:00 -3,7 C 76 % 1019,9 hPa 0,0 l/m 4,7 km/h (1 Bft) -7,3 C -3,7 C 14,5 km/h (3 Bft)
22.02.2018 06:55 -3,7 C 76 % 1019,9 hPa 0,0 l/m 6,5 km/h (2 Bft) -7,3 C -3,8 C 14,5 km/h (3 Bft)
22.02.2018 06:50 -3,7 C 76 % 1019,9 hPa 0,0 l/m 4,2 km/h (1 Bft) -7,3 C -3,7 C 11,3 km/h (2 Bft)
22.02.2018 06:45 -3,7 C 76 % 1019,9 hPa 0,0 l/m 5,3 km/h (1 Bft) -7,3 C -3,7 C 11,3 km/h (2 Bft)
22.02.2018 06:40 -3,7 C 76 % 1019,9 hPa 0,0 l/m 4,5 km/h (1 Bft) -7,3 C -3,7 C 8,0 km/h (2 Bft)
22.02.2018 06:35 -3,7 C 76 % 1020,0 hPa 0,0 l/m 3,7 km/h (1 Bft) -7,3 C -3,7 C 11,3 km/h (2 Bft)
22.02.2018 06:30 -3,6 C 76 % 1020,0 hPa 0,0 l/m 4,8 km/h (1 Bft) -7,2 C -3,6 C 12,9 km/h (3 Bft)
22.02.2018 06:25 -3,6 C 76 % 1020,0 hPa 0,0 l/m 4,0 km/h (1 Bft) -7,2 C -3,6 C 14,5 km/h (3 Bft)
22.02.2018 06:20 -3,5 C 76 % 1020,1 hPa 0,0 l/m 4,9 km/h (1 Bft) -7,1 C -3,5 C 11,3 km/h (2 Bft)
22.02.2018 06:15 -3,6 C 76 % 1020,2 hPa 0,0 l/m 6,4 km/h (2 Bft) -7,2 C -3,5 C 14,5 km/h (3 Bft)
22.02.2018 06:10 -3,6 C 77 % 1020,1 hPa 0,0 l/m 6,7 km/h (2 Bft) -7,0 C -3,9 C 14,5 km/h (3 Bft)
22.02.2018 06:05 -3,5 C 77 % 1020,2 hPa 0,0 l/m 6,7 km/h (2 Bft) -6,9 C -3,8 C 17,7 km/h (3 Bft)
22.02.2018 06:00 -3,6 C 77 % 1020,1 hPa 0,0 l/m 5,5 km/h (1 Bft) -7,0 C -3,6 C 11,3 km/h (2 Bft)
_ Min-Zeit 02:10 00:20 04:40 - 01:50 02:50 05:50 00:05
Minimum _ -3,9 C 74 % 1019,9 hPa - 0,9 km/h (0 Bft) -7,6 C -5,9 C 4,8 km/h (1 Bft)
_ Max-Zeit 00:15 02:05 00:00 00:00 05:50 00:15 00:15 06:05
Maximum _ -3,0 C 78 % 1021,1 hPa 0,0 l/m 8,3 km/h
NO (2 Bft)
-6,8 C -3,0 C 17,7 km/h
N (3 Bft)
Durchschnitt _ -3,6 C 76 % 1020,3 hPa #0,0 l/m 4,3 km/h (1 Bft) -7,2 C -3,6 C 10,3 km/h (2 Bft)